sensor_id;sensor_type;location;lat;lon;timestamp;temperature;humidity
11474;DHT22;5793;52.238;13.438;2024-03-17T00:00:27;2.70;99.90
11474;DHT22;5793;52.238;13.438;2024-03-17T00:02:54;2.70;99.90
11474;DHT22;5793;52.238;13.438;2024-03-17T00:05:21;2.60;99.90
11474;DHT22;5793;52.238;13.438;2024-03-17T00:07:48;2.60;99.90
11474;DHT22;5793;52.238;13.438;2024-03-17T00:10:14;2.60;99.90
11474;DHT22;5793;52.238;13.438;2024-03-17T00:12:41;2.60;99.90
11474;DHT22;5793;52.238;13.438;2024-03-17T00:15:08;2.50;99.90
11474;DHT22;5793;52.238;13.438;2024-03-17T00:17:36;2.50;99.90
11474;DHT22;5793;52.238;13.438;2024-03-17T00:20:03;2.40;99.90
11474;DHT22;5793;52.238;13.438;2024-03-17T00:22:31;2.30;99.90
11474;DHT22;5793;52.238;13.438;2024-03-17T00:25:03;2.30;99.90
11474;DHT22;5793;52.238;13.438;2024-03-17T00:27:29;2.20;99.90
11474;DHT22;5793;52.238;13.438;2024-03-17T00:29:56;2.10;99.90
11474;DHT22;5793;52.238;13.438;2024-03-17T00:32:22;2.00;99.90
11474;DHT22;5793;52.238;13.438;2024-03-17T00:34:49;1.90;99.90
11474;DHT22;5793;52.238;13.438;2024-03-17T00:37:15;1.90;99.90
11474;DHT22;5793;52.238;13.438;2024-03-17T00:39:43;1.80;99.90
11474;DHT22;5793;52.238;13.438;2024-03-17T00:42:09;1.80;99.90
11474;DHT22;5793;52.238;13.438;2024-03-17T00:44:36;1.80;99.90
11474;DHT22;5793;52.238;13.438;2024-03-17T00:47:02;1.80;99.90
11474;DHT22;5793;52.238;13.438;2024-03-17T00:49:29;1.80;99.90
11474;DHT22;5793;52.238;13.438;2024-03-17T00:51:55;1.90;99.90
11474;DHT22;5793;52.238;13.438;2024-03-17T00:54:22;2.00;99.90
11474;DHT22;5793;52.238;13.438;2024-03-17T00:56:49;2.00;99.90
11474;DHT22;5793;52.238;13.438;2024-03-17T00:59:17;2.00;99.90
11474;DHT22;5793;52.238;13.438;2024-03-17T01:01:43;2.00;99.90
11474;DHT22;5793;52.238;13.438;2024-03-17T01:04:10;2.00;99.90
11474;DHT22;5793;52.238;13.438;2024-03-17T01:06:36;2.00;99.90
11474;DHT22;5793;52.238;13.438;2024-03-17T01:09:06;2.00;99.90
11474;DHT22;5793;52.238;13.438;2024-03-17T01:11:32;2.00;99.90
11474;DHT22;5793;52.238;13.438;2024-03-17T01:14:00;2.10;99.90
11474;DHT22;5793;52.238;13.438;2024-03-17T01:16:26;2.00;99.90
11474;DHT22;5793;52.238;13.438;2024-03-17T01:18:53;2.00;99.90
11474;DHT22;5793;52.238;13.438;2024-03-17T01:21:20;2.00;99.90
11474;DHT22;5793;52.238;13.438;2024-03-17T01:23:48;2.00;99.90
11474;DHT22;5793;52.238;13.438;2024-03-17T01:26:13;2.00;99.90
11474;DHT22;5793;52.238;13.438;2024-03-17T01:28:40;2.00;99.90
11474;DHT22;5793;52.238;13.438;2024-03-17T01:31:08;2.10;99.90
11474;DHT22;5793;52.238;13.438;2024-03-17T01:33:35;2.00;99.90
11474;DHT22;5793;52.238;13.438;2024-03-17T01:36:01;2.00;99.90
11474;DHT22;5793;52.238;13.438;2024-03-17T01:38:27;2.00;99.90
11474;DHT22;5793;52.238;13.438;2024-03-17T01:40:53;2.00;99.90
11474;DHT22;5793;52.238;13.438;2024-03-17T01:43:20;2.00;99.90
11474;DHT22;5793;52.238;13.438;2024-03-17T01:45:46;2.00;99.90
11474;DHT22;5793;52.238;13.438;2024-03-17T01:48:15;2.10;99.90
11474;DHT22;5793;52.238;13.438;2024-03-17T01:50:43;2.00;99.90
11474;DHT22;5793;52.238;13.438;2024-03-17T01:53:12;2.00;99.90
11474;DHT22;5793;52.238;13.438;2024-03-17T01:55:40;2.00;99.90
11474;DHT22;5793;52.238;13.438;2024-03-17T01:58:08;2.00;99.90
11474;DHT22;5793;52.238;13.438;2024-03-17T02:00:37;2.00;99.90
11474;DHT22;5793;52.238;13.438;2024-03-17T02:03:04;2.00;99.90
11474;DHT22;5793;52.238;13.438;2024-03-17T02:05:32;2.10;99.90
11474;DHT22;5793;52.238;13.438;2024-03-17T02:07:59;2.10;99.90
11474;DHT22;5793;52.238;13.438;2024-03-17T02:10:26;2.10;99.90
11474;DHT22;5793;52.238;13.438;2024-03-17T02:12:52;2.10;99.90
11474;DHT22;5793;52.238;13.438;2024-03-17T02:15:19;2.00;99.90
11474;DHT22;5793;52.238;13.438;2024-03-17T02:17:45;2.00;99.90
11474;DHT22;5793;52.238;13.438;2024-03-17T02:20:12;2.00;99.90
11474;DHT22;5793;52.238;13.438;2024-03-17T02:22:40;2.00;99.90
11474;DHT22;5793;52.238;13.438;2024-03-17T02:25:07;1.90;99.90
11474;DHT22;5793;52.238;13.438;2024-03-17T02:27:33;1.80;99.90
11474;DHT22;5793;52.238;13.438;2024-03-17T02:30:00;1.90;99.90
11474;DHT22;5793;52.238;13.438;2024-03-17T02:32:26;1.80;99.90
11474;DHT22;5793;52.238;13.438;2024-03-17T02:34:53;1.80;99.90
11474;DHT22;5793;52.238;13.438;2024-03-17T02:37:22;1.80;99.90
11474;DHT22;5793;52.238;13.438;2024-03-17T02:39:49;1.80;99.90
11474;DHT22;5793;52.238;13.438;2024-03-17T02:42:16;1.80;99.90
11474;DHT22;5793;52.238;13.438;2024-03-17T02:44:43;1.70;99.90
11474;DHT22;5793;52.238;13.438;2024-03-17T02:47:09;1.70;99.90
11474;DHT22;5793;52.238;13.438;2024-03-17T02:49:36;1.70;99.90
11474;DHT22;5793;52.238;13.438;2024-03-17T02:52:06;1.70;99.90
11474;DHT22;5793;52.238;13.438;2024-03-17T02:54:33;1.70;99.90
11474;DHT22;5793;52.238;13.438;2024-03-17T02:57:02;1.70;99.90
11474;DHT22;5793;52.238;13.438;2024-03-17T02:59:29;1.60;99.90
11474;DHT22;5793;52.238;13.438;2024-03-17T03:01:56;1.60;99.90
11474;DHT22;5793;52.238;13.438;2024-03-17T03:04:23;1.50;99.90
11474;DHT22;5793;52.238;13.438;2024-03-17T03:06:50;1.50;99.90
11474;DHT22;5793;52.238;13.438;2024-03-17T03:09:17;1.40;99.90
11474;DHT22;5793;52.238;13.438;2024-03-17T03:11:51;1.40;99.90
11474;DHT22;5793;52.238;13.438;2024-03-17T03:14:19;1.40;99.90
11474;DHT22;5793;52.238;13.438;2024-03-17T03:16:47;1.30;99.90
11474;DHT22;5793;52.238;13.438;2024-03-17T03:19:15;1.20;99.90
11474;DHT22;5793;52.238;13.438;2024-03-17T03:21:42;1.00;99.90
11474;DHT22;5793;52.238;13.438;2024-03-17T03:24:08;0.90;99.90
11474;DHT22;5793;52.238;13.438;2024-03-17T03:26:35;0.90;99.90
11474;DHT22;5793;52.238;13.438;2024-03-17T03:29:02;0.80;99.90
11474;DHT22;5793;52.238;13.438;2024-03-17T03:31:31;0.80;99.90
11474;DHT22;5793;52.238;13.438;2024-03-17T03:33:58;0.80;99.90
11474;DHT22;5793;52.238;13.438;2024-03-17T03:36:27;0.80;99.90
11474;DHT22;5793;52.238;13.438;2024-03-17T03:38:54;0.80;99.90
11474;DHT22;5793;52.238;13.438;2024-03-17T03:41:23;0.70;99.90
11474;DHT22;5793;52.238;13.438;2024-03-17T03:43:50;0.70;99.90
11474;DHT22;5793;52.238;13.438;2024-03-17T03:46:17;0.70;99.90
11474;DHT22;5793;52.238;13.438;2024-03-17T03:48:45;0.70;99.90
11474;DHT22;5793;52.238;13.438;2024-03-17T03:51:13;0.70;99.90
11474;DHT22;5793;52.238;13.438;2024-03-17T03:53:40;0.70;99.90
11474;DHT22;5793;52.238;13.438;2024-03-17T03:56:08;0.70;99.90
11474;DHT22;5793;52.238;13.438;2024-03-17T03:58:37;0.70;99.90
11474;DHT22;5793;52.238;13.438;2024-03-17T04:01:05;0.70;99.90
11474;DHT22;5793;52.238;13.438;2024-03-17T04:03:32;0.70;99.90
11474;DHT22;5793;52.238;13.438;2024-03-17T04:06:05;0.60;99.90
11474;DHT22;5793;52.238;13.438;2024-03-17T04:08:33;0.60;99.90
11474;DHT22;5793;52.238;13.438;2024-03-17T04:11:00;0.60;99.90
11474;DHT22;5793;52.238;13.438;2024-03-17T04:13:28;0.60;99.90
11474;DHT22;5793;52.238;13.438;2024-03-17T04:15:55;0.60;99.90
11474;DHT22;5793;52.238;13.438;2024-03-17T04:18:24;0.60;99.90
11474;DHT22;5793;52.238;13.438;2024-03-17T04:20:51;0.60;99.90
11474;DHT22;5793;52.238;13.438;2024-03-17T04:23:20;0.60;99.90
11474;DHT22;5793;52.238;13.438;2024-03-17T04:25:47;0.70;99.90
11474;DHT22;5793;52.238;13.438;2024-03-17T04:28:14;0.60;99.90
11474;DHT22;5793;52.238;13.438;2024-03-17T04:30:42;0.60;99.90
11474;DHT22;5793;52.238;13.438;2024-03-17T04:33:09;0.60;99.90
11474;DHT22;5793;52.238;13.438;2024-03-17T04:35:36;0.60;99.90
11474;DHT22;5793;52.238;13.438;2024-03-17T04:38:04;0.60;99.90
11474;DHT22;5793;52.238;13.438;2024-03-17T04:40:32;0.60;99.90
11474;DHT22;5793;52.238;13.438;2024-03-17T04:42:59;0.50;99.90
11474;DHT22;5793;52.238;13.438;2024-03-17T04:45:26;0.50;99.90
11474;DHT22;5793;52.238;13.438;2024-03-17T04:47:53;0.50;99.90
11474;DHT22;5793;52.238;13.438;2024-03-17T04:50:20;0.40;99.90
11474;DHT22;5793;52.238;13.438;2024-03-17T04:52:48;0.30;99.90
11474;DHT22;5793;52.238;13.438;2024-03-17T04:55:15;0.30;99.90
11474;DHT22;5793;52.238;13.438;2024-03-17T04:57:44;0.20;99.90
11474;DHT22;5793;52.238;13.438;2024-03-17T05:00:12;0.20;99.90
11474;DHT22;5793;52.238;13.438;2024-03-17T05:02:39;0.20;99.90
11474;DHT22;5793;52.238;13.438;2024-03-17T05:05:06;0.30;99.90
11474;DHT22;5793;52.238;13.438;2024-03-17T05:07:36;0.40;99.90
11474;DHT22;5793;52.238;13.438;2024-03-17T05:10:03;0.40;99.90
11474;DHT22;5793;52.238;13.438;2024-03-17T05:12:31;0.40;99.90
11474;DHT22;5793;52.238;13.438;2024-03-17T05:14:59;0.40;99.90
11474;DHT22;5793;52.238;13.438;2024-03-17T05:17:26;0.40;99.90
11474;DHT22;5793;52.238;13.438;2024-03-17T05:19:53;0.30;99.90
11474;DHT22;5793;52.238;13.438;2024-03-17T05:22:20;0.30;99.90
11474;DHT22;5793;52.238;13.438;2024-03-17T05:24:47;0.30;99.90
11474;DHT22;5793;52.238;13.438;2024-03-17T05:27:14;0.30;99.90
11474;DHT22;5793;52.238;13.438;2024-03-17T05:29:41;0.40;99.90
11474;DHT22;5793;52.238;13.438;2024-03-17T05:32:09;0.40;99.90
11474;DHT22;5793;52.238;13.438;2024-03-17T05:34:37;0.40;99.90
11474;DHT22;5793;52.238;13.438;2024-03-17T05:37:04;0.50;99.90
11474;DHT22;5793;52.238;13.438;2024-03-17T05:39:31;0.50;99.90
11474;DHT22;5793;52.238;13.438;2024-03-17T05:41:57;0.50;99.90
11474;DHT22;5793;52.238;13.438;2024-03-17T05:44:24;0.50;99.90
11474;DHT22;5793;52.238;13.438;2024-03-17T05:46:51;0.50;99.90
11474;DHT22;5793;52.238;13.438;2024-03-17T05:49:20;0.60;99.90
11474;DHT22;5793;52.238;13.438;2024-03-17T05:51:47;0.60;99.90
11474;DHT22;5793;52.238;13.438;2024-03-17T05:54:14;0.70;99.90
11474;DHT22;5793;52.238;13.438;2024-03-17T05:56:41;0.70;99.90
11474;DHT22;5793;52.238;13.438;2024-03-17T05:59:08;0.80;99.90
11474;DHT22;5793;52.238;13.438;2024-03-17T06:01:34;0.80;99.90
11474;DHT22;5793;52.238;13.438;2024-03-17T06:04:02;0.90;99.90
11474;DHT22;5793;52.238;13.438;2024-03-17T06:06:31;1.00;99.90
11474;DHT22;5793;52.238;13.438;2024-03-17T06:08:58;1.10;99.90
11474;DHT22;5793;52.238;13.438;2024-03-17T06:11:25;1.20;99.90
11474;DHT22;5793;52.238;13.438;2024-03-17T06:13:52;1.30;99.90
11474;DHT22;5793;52.238;13.438;2024-03-17T06:16:19;1.40;99.90
11474;DHT22;5793;52.238;13.438;2024-03-17T06:18:46;1.50;99.90
11474;DHT22;5793;52.238;13.438;2024-03-17T06:21:16;1.60;99.90
11474;DHT22;5793;52.238;13.438;2024-03-17T06:23:44;1.70;99.90
11474;DHT22;5793;52.238;13.438;2024-03-17T06:26:12;1.70;99.90
11474;DHT22;5793;52.238;13.438;2024-03-17T06:28:39;1.80;99.90
11474;DHT22;5793;52.238;13.438;2024-03-17T06:31:07;1.90;99.90
11474;DHT22;5793;52.238;13.438;2024-03-17T06:33:35;1.90;99.90
11474;DHT22;5793;52.238;13.438;2024-03-17T06:36:03;2.00;99.90
11474;DHT22;5793;52.238;13.438;2024-03-17T06:38:31;2.10;99.90
11474;DHT22;5793;52.238;13.438;2024-03-17T06:40:59;2.10;99.90
11474;DHT22;5793;52.238;13.438;2024-03-17T06:43:26;2.20;99.90
11474;DHT22;5793;52.238;13.438;2024-03-17T06:45:57;2.30;99.90
11474;DHT22;5793;52.238;13.438;2024-03-17T06:48:23;2.30;99.90
11474;DHT22;5793;52.238;13.438;2024-03-17T06:50:51;2.40;99.90
11474;DHT22;5793;52.238;13.438;2024-03-17T06:53:18;2.60;99.90
11474;DHT22;5793;52.238;13.438;2024-03-17T06:55:52;2.70;99.90
11474;DHT22;5793;52.238;13.438;2024-03-17T06:58:21;2.90;99.90
11474;DHT22;5793;52.238;13.438;2024-03-17T07:00:53;3.00;99.90
11474;DHT22;5793;52.238;13.438;2024-03-17T07:03:20;3.10;99.90
11474;DHT22;5793;52.238;13.438;2024-03-17T07:05:51;3.10;99.90
11474;DHT22;5793;52.238;13.438;2024-03-17T07:08:18;3.20;99.90
11474;DHT22;5793;52.238;13.438;2024-03-17T07:10:55;3.30;99.90
11474;DHT22;5793;52.238;13.438;2024-03-17T07:13:23;3.40;99.90
11474;DHT22;5793;52.238;13.438;2024-03-17T07:15:50;3.50;99.90
11474;DHT22;5793;52.238;13.438;2024-03-17T07:18:17;3.60;99.90
11474;DHT22;5793;52.238;13.438;2024-03-17T07:20:44;3.70;99.90
11474;DHT22;5793;52.238;13.438;2024-03-17T07:23:13;3.70;99.90
11474;DHT22;5793;52.238;13.438;2024-03-17T07:25:40;3.80;99.90
11474;DHT22;5793;52.238;13.438;2024-03-17T07:28:08;3.90;99.90
11474;DHT22;5793;52.238;13.438;2024-03-17T07:30:36;4.00;99.90
11474;DHT22;5793;52.238;13.438;2024-03-17T07:33:03;4.10;99.90
11474;DHT22;5793;52.238;13.438;2024-03-17T07:35:30;4.20;99.90
11474;DHT22;5793;52.238;13.438;2024-03-17T07:40:34;4.40;99.90
11474;DHT22;5793;52.238;13.438;2024-03-17T07:43:00;4.50;99.90
11474;DHT22;5793;52.238;13.438;2024-03-17T07:45:27;4.70;99.90
11474;DHT22;5793;52.238;13.438;2024-03-17T07:47:56;4.80;99.90
11474;DHT22;5793;52.238;13.438;2024-03-17T07:50:23;5.00;99.90
11474;DHT22;5793;52.238;13.438;2024-03-17T07:52:50;5.20;99.90
11474;DHT22;5793;52.238;13.438;2024-03-17T07:55:17;5.40;99.90
11474;DHT22;5793;52.238;13.438;2024-03-17T07:57:43;5.60;99.90
11474;DHT22;5793;52.238;13.438;2024-03-17T08:00:11;5.60;99.90
11474;DHT22;5793;52.238;13.438;2024-03-17T08:02:42;5.80;99.90
11474;DHT22;5793;52.238;13.438;2024-03-17T08:05:12;5.80;99.90
11474;DHT22;5793;52.238;13.438;2024-03-17T08:07:39;6.20;99.90
11474;DHT22;5793;52.238;13.438;2024-03-17T08:10:07;6.30;99.90
11474;DHT22;5793;52.238;13.438;2024-03-17T08:12:34;6.50;99.90
11474;DHT22;5793;52.238;13.438;2024-03-17T08:15:01;6.80;99.90
11474;DHT22;5793;52.238;13.438;2024-03-17T08:17:28;6.90;99.90
11474;DHT22;5793;52.238;13.438;2024-03-17T08:19:55;6.90;99.90
11474;DHT22;5793;52.238;13.438;2024-03-17T08:22:24;7.00;99.90
11474;DHT22;5793;52.238;13.438;2024-03-17T08:24:50;7.30;99.90
11474;DHT22;5793;52.238;13.438;2024-03-17T08:27:17;7.80;99.90
11474;DHT22;5793;52.238;13.438;2024-03-17T08:29:44;8.10;99.90
11474;DHT22;5793;52.238;13.438;2024-03-17T08:32:11;8.10;99.90
11474;DHT22;5793;52.238;13.438;2024-03-17T08:34:40;8.90;99.90
11474;DHT22;5793;52.238;13.438;2024-03-17T08:37:07;10.00;99.90
11474;DHT22;5793;52.238;13.438;2024-03-17T08:39:36;10.70;99.90
11474;DHT22;5793;52.238;13.438;2024-03-17T08:42:03;10.00;99.90
11474;DHT22;5793;52.238;13.438;2024-03-17T08:44:30;9.00;99.90
11474;DHT22;5793;52.238;13.438;2024-03-17T08:46:56;9.60;99.90
11474;DHT22;5793;52.238;13.438;2024-03-17T08:49:23;9.50;99.90
11474;DHT22;5793;52.238;13.438;2024-03-17T08:51:51;9.30;99.90
11474;DHT22;5793;52.238;13.438;2024-03-17T08:54:18;9.10;99.90
11474;DHT22;5793;52.238;13.438;2024-03-17T08:56:46;8.40;99.90
11474;DHT22;5793;52.238;13.438;2024-03-17T08:59:13;7.80;99.90
11474;DHT22;5793;52.238;13.438;2024-03-17T09:01:40;7.30;99.90
11474;DHT22;5793;52.238;13.438;2024-03-17T09:04:07;7.00;99.90
11474;DHT22;5793;52.238;13.438;2024-03-17T09:06:37;8.50;99.90
11474;DHT22;5793;52.238;13.438;2024-03-17T09:09:03;10.30;99.90
11474;DHT22;5793;52.238;13.438;2024-03-17T09:11:31;13.80;99.90
11474;DHT22;5793;52.238;13.438;2024-03-17T09:14:00;16.20;93.40
11474;DHT22;5793;52.238;13.438;2024-03-17T09:16:27;18.50;77.40
11474;DHT22;5793;52.238;13.438;2024-03-17T09:18:54;18.20;73.60
11474;DHT22;5793;52.238;13.438;2024-03-17T09:21:21;20.10;69.00
11474;DHT22;5793;52.238;13.438;2024-03-17T09:23:47;20.50;65.30
11474;DHT22;5793;52.238;13.438;2024-03-17T09:26:15;20.70;62.60
11474;DHT22;5793;52.238;13.438;2024-03-17T09:28:43;17.70;65.60
11474;DHT22;5793;52.238;13.438;2024-03-17T09:31:12;15.10;69.20
11474;DHT22;5793;52.238;13.438;2024-03-17T09:33:39;16.30;70.80
11474;DHT22;5793;52.238;13.438;2024-03-17T09:36:07;19.70;64.10
11474;DHT22;5793;52.238;13.438;2024-03-17T09:38:35;20.40;58.70
11474;DHT22;5793;52.238;13.438;2024-03-17T09:41:02;18.30;60.10
11474;DHT22;5793;52.238;13.438;2024-03-17T09:43:31;17.10;65.40
11474;DHT22;5793;52.238;13.438;2024-03-17T09:45:58;16.70;64.80
11474;DHT22;5793;52.238;13.438;2024-03-17T09:48:27;16.60;60.90
11474;DHT22;5793;52.238;13.438;2024-03-17T09:50:55;17.70;61.40
11474;DHT22;5793;52.238;13.438;2024-03-17T09:53:24;20.30;57.90
11474;DHT22;5793;52.238;13.438;2024-03-17T09:55:52;22.50;53.90
11474;DHT22;5793;52.238;13.438;2024-03-17T09:58:19;23.50;52.90
11474;DHT22;5793;52.238;13.438;2024-03-17T10:00:46;24.20;51.80
11474;DHT22;5793;52.238;13.438;2024-03-17T10:03:12;22.60;50.70
11474;DHT22;5793;52.238;13.438;2024-03-17T10:06:01;21.80;50.80
11474;DHT22;5793;52.238;13.438;2024-03-17T10:08:27;17.70;56.10
11474;DHT22;5793;52.238;13.438;2024-03-17T10:10:55;14.20;61.20
11474;DHT22;5793;52.238;13.438;2024-03-17T10:13:22;12.30;68.10
11474;DHT22;5793;52.238;13.438;2024-03-17T10:15:49;12.20;71.20
11474;DHT22;5793;52.238;13.438;2024-03-17T10:18:20;13.80;65.30
11474;DHT22;5793;52.238;13.438;2024-03-17T10:20:48;14.10;65.40
11474;DHT22;5793;52.238;13.438;2024-03-17T10:23:19;15.20;64.10
11474;DHT22;5793;52.238;13.438;2024-03-17T10:25:46;15.50;63.80
11474;DHT22;5793;52.238;13.438;2024-03-17T10:28:14;14.80;66.90
11474;DHT22;5793;52.238;13.438;2024-03-17T10:30:42;12.80;70.50
11474;DHT22;5793;52.238;13.438;2024-03-17T10:33:23;11.70;74.70
11474;DHT22;5793;52.238;13.438;2024-03-17T10:35:51;11.00;79.60
11474;DHT22;5793;52.238;13.438;2024-03-17T10:38:26;11.50;79.20
11474;DHT22;5793;52.238;13.438;2024-03-17T10:40:53;12.10;76.40
11474;DHT22;5793;52.238;13.438;2024-03-17T10:43:20;11.30;73.70
11474;DHT22;5793;52.238;13.438;2024-03-17T10:45:51;9.70;81.60
11474;DHT22;5793;52.238;13.438;2024-03-17T10:48:20;8.90;91.80
11474;DHT22;5793;52.238;13.438;2024-03-17T10:50:50;9.00;99.90
11474;DHT22;5793;52.238;13.438;2024-03-17T10:53:20;10.00;89.10
11474;DHT22;5793;52.238;13.438;2024-03-17T10:55:56;12.90;77.80
11474;DHT22;5793;52.238;13.438;2024-03-17T10:58:33;17.20;62.00
11474;DHT22;5793;52.238;13.438;2024-03-17T11:01:01;20.50;57.20
11474;DHT22;5793;52.238;13.438;2024-03-17T11:03:31;22.40;52.20
11474;DHT22;5793;52.238;13.438;2024-03-17T11:05:59;23.10;52.40
11474;DHT22;5793;52.238;13.438;2024-03-17T11:08:26;23.50;48.00
11474;DHT22;5793;52.238;13.438;2024-03-17T11:10:55;23.80;50.00
11474;DHT22;5793;52.238;13.438;2024-03-17T11:13:23;20.90;50.80
11474;DHT22;5793;52.238;13.438;2024-03-17T11:15:50;16.70;57.60
11474;DHT22;5793;52.238;13.438;2024-03-17T11:18:36;13.90;63.70
11474;DHT22;5793;52.238;13.438;2024-03-17T11:21:18;11.20;68.60
11474;DHT22;5793;52.238;13.438;2024-03-17T11:23:55;10.40;75.10
11474;DHT22;5793;52.238;13.438;2024-03-17T11:26:32;9.60;80.90
11474;DHT22;5793;52.238;13.438;2024-03-17T11:28:59;9.00;88.10
11474;DHT22;5793;52.238;13.438;2024-03-17T11:31:36;8.90;88.00
11474;DHT22;5793;52.238;13.438;2024-03-17T11:34:04;10.20;81.70
11474;DHT22;5793;52.238;13.438;2024-03-17T11:36:35;11.70;74.50
11474;DHT22;5793;52.238;13.438;2024-03-17T11:39:03;12.70;76.80
11474;DHT22;5793;52.238;13.438;2024-03-17T11:41:40;13.70;71.90
11474;DHT22;5793;52.238;13.438;2024-03-17T11:44:24;13.90;69.40
11474;DHT22;5793;52.238;13.438;2024-03-17T11:46:53;12.80;69.20
11474;DHT22;5793;52.238;13.438;2024-03-17T11:49:20;11.40;74.80
11474;DHT22;5793;52.238;13.438;2024-03-17T11:51:48;10.80;73.70
11474;DHT22;5793;52.238;13.438;2024-03-17T11:54:15;10.50;77.50
11474;DHT22;5793;52.238;13.438;2024-03-17T11:56:48;10.80;79.00
11474;DHT22;5793;52.238;13.438;2024-03-17T11:59:15;11.00;82.40
11474;DHT22;5793;52.238;13.438;2024-03-17T12:01:44;11.20;79.60
11474;DHT22;5793;52.238;13.438;2024-03-17T12:04:10;11.00;79.40
11474;DHT22;5793;52.238;13.438;2024-03-17T12:06:38;10.70;80.10
11474;DHT22;5793;52.238;13.438;2024-03-17T12:09:11;10.30;81.50
11474;DHT22;5793;52.238;13.438;2024-03-17T12:11:44;9.90;81.00
11474;DHT22;5793;52.238;13.438;2024-03-17T12:14:16;9.90;82.80
11474;DHT22;5793;52.238;13.438;2024-03-17T12:16:52;9.60;81.50
11474;DHT22;5793;52.238;13.438;2024-03-17T12:19:18;9.40;81.20
11474;DHT22;5793;52.238;13.438;2024-03-17T12:21:47;9.30;82.90
11474;DHT22;5793;52.238;13.438;2024-03-17T12:24:18;9.30;82.90
11474;DHT22;5793;52.238;13.438;2024-03-17T12:26:46;9.30;84.00
11474;DHT22;5793;52.238;13.438;2024-03-17T12:29:25;9.30;84.80
11474;DHT22;5793;52.238;13.438;2024-03-17T12:31:54;9.20;86.00
11474;DHT22;5793;52.238;13.438;2024-03-17T12:34:21;9.50;90.00
11474;DHT22;5793;52.238;13.438;2024-03-17T12:36:48;10.00;83.70
11474;DHT22;5793;52.238;13.438;2024-03-17T12:39:18;10.50;82.60
11474;DHT22;5793;52.238;13.438;2024-03-17T12:41:45;10.90;82.50
11474;DHT22;5793;52.238;13.438;2024-03-17T12:44:25;11.30;80.70
11474;DHT22;5793;52.238;13.438;2024-03-17T12:46:55;11.50;86.80
11474;DHT22;5793;52.238;13.438;2024-03-17T12:49:22;11.80;84.00
11474;DHT22;5793;52.238;13.438;2024-03-17T12:51:51;11.90;81.60
11474;DHT22;5793;52.238;13.438;2024-03-17T12:54:20;11.40;80.00
11474;DHT22;5793;52.238;13.438;2024-03-17T12:56:46;10.90;79.60
11474;DHT22;5793;52.238;13.438;2024-03-17T12:59:42;10.50;79.50
11474;DHT22;5793;52.238;13.438;2024-03-17T13:02:27;10.30;81.40
11474;DHT22;5793;52.238;13.438;2024-03-17T13:05:13;10.30;82.80
11474;DHT22;5793;52.238;13.438;2024-03-17T13:07:41;10.50;81.40
11474;DHT22;5793;52.238;13.438;2024-03-17T13:10:08;10.70;83.10
11474;DHT22;5793;52.238;13.438;2024-03-17T13:12:36;10.40;83.50
11474;DHT22;5793;52.238;13.438;2024-03-17T13:15:05;10.20;85.90
11474;DHT22;5793;52.238;13.438;2024-03-17T13:17:32;9.90;90.40
11474;DHT22;5793;52.238;13.438;2024-03-17T13:20:00;9.80;90.50
11474;DHT22;5793;52.238;13.438;2024-03-17T13:22:27;9.80;90.40
11474;DHT22;5793;52.238;13.438;2024-03-17T13:24:54;9.90;91.40
11474;DHT22;5793;52.238;13.438;2024-03-17T13:27:21;10.10;88.00
11474;DHT22;5793;52.238;13.438;2024-03-17T13:29:48;10.30;86.90
11474;DHT22;5793;52.238;13.438;2024-03-17T13:32:16;10.20;87.70
11474;DHT22;5793;52.238;13.438;2024-03-17T13:34:43;10.20;88.90
11474;DHT22;5793;52.238;13.438;2024-03-17T13:37:11;10.20;90.90
11474;DHT22;5793;52.238;13.438;2024-03-17T13:39:51;10.10;88.00
11474;DHT22;5793;52.238;13.438;2024-03-17T13:42:18;10.00;92.20
11474;DHT22;5793;52.238;13.438;2024-03-17T13:44:46;10.00;90.40
11474;DHT22;5793;52.238;13.438;2024-03-17T13:47:14;10.10;90.70
11474;DHT22;5793;52.238;13.438;2024-03-17T13:49:42;10.10;89.40
11474;DHT22;5793;52.238;13.438;2024-03-17T13:52:09;10.20;88.70
11474;DHT22;5793;52.238;13.438;2024-03-17T13:54:36;10.20;88.80
11474;DHT22;5793;52.238;13.438;2024-03-17T13:57:03;10.20;90.00
11474;DHT22;5793;52.238;13.438;2024-03-17T13:59:31;10.40;90.40
11474;DHT22;5793;52.238;13.438;2024-03-17T14:01:59;10.30;88.90
11474;DHT22;5793;52.238;13.438;2024-03-17T14:04:27;10.30;88.70
11474;DHT22;5793;52.238;13.438;2024-03-17T14:06:55;10.20;90.10
11474;DHT22;5793;52.238;13.438;2024-03-17T14:09:22;10.10;91.30
11474;DHT22;5793;52.238;13.438;2024-03-17T14:11:49;10.10;91.50
11474;DHT22;5793;52.238;13.438;2024-03-17T14:14:16;9.80;90.20
11474;DHT22;5793;52.238;13.438;2024-03-17T14:16:43;9.50;91.50
11474;DHT22;5793;52.238;13.438;2024-03-17T14:19:10;9.20;91.30
11474;DHT22;5793;52.238;13.438;2024-03-17T14:21:37;9.00;93.90
11474;DHT22;5793;52.238;13.438;2024-03-17T14:24:05;8.90;96.20
11474;DHT22;5793;52.238;13.438;2024-03-17T14:26:34;8.90;93.50
11474;DHT22;5793;52.238;13.438;2024-03-17T14:29:01;8.90;93.70
11474;DHT22;5793;52.238;13.438;2024-03-17T14:31:31;8.80;92.90
11474;DHT22;5793;52.238;13.438;2024-03-17T14:34:01;8.70;95.30
11474;DHT22;5793;52.238;13.438;2024-03-17T14:36:28;8.70;97.30
11474;DHT22;5793;52.238;13.438;2024-03-17T14:38:58;8.70;96.30
11474;DHT22;5793;52.238;13.438;2024-03-17T14:41:28;8.80;98.30
11474;DHT22;5793;52.238;13.438;2024-03-17T14:43:56;8.80;96.90
11474;DHT22;5793;52.238;13.438;2024-03-17T14:46:23;8.80;99.10
11474;DHT22;5793;52.238;13.438;2024-03-17T14:48:50;8.70;96.90
11474;DHT22;5793;52.238;13.438;2024-03-17T14:51:17;8.70;98.10
11474;DHT22;5793;52.238;13.438;2024-03-17T14:53:44;8.60;98.60
11474;DHT22;5793;52.238;13.438;2024-03-17T14:56:15;8.60;96.60
11474;DHT22;5793;52.238;13.438;2024-03-17T14:58:44;8.60;96.80
11474;DHT22;5793;52.238;13.438;2024-03-17T15:01:13;8.60;97.90
11474;DHT22;5793;52.238;13.438;2024-03-17T15:03:40;8.60;99.90
11474;DHT22;5793;52.238;13.438;2024-03-17T15:06:12;8.60;99.40
11474;DHT22;5793;52.238;13.438;2024-03-17T15:08:40;8.60;98.30
11474;DHT22;5793;52.238;13.438;2024-03-17T15:11:07;8.60;99.60
11474;DHT22;5793;52.238;13.438;2024-03-17T15:13:35;8.70;98.10
11474;DHT22;5793;52.238;13.438;2024-03-17T15:16:03;8.80;97.60
11474;DHT22;5793;52.238;13.438;2024-03-17T15:18:31;8.80;97.10
11474;DHT22;5793;52.238;13.438;2024-03-17T15:21:00;8.90;99.90
11474;DHT22;5793;52.238;13.438;2024-03-17T15:23:27;9.00;98.40
11474;DHT22;5793;52.238;13.438;2024-03-17T15:26:02;9.10;98.10
11474;DHT22;5793;52.238;13.438;2024-03-17T15:28:33;9.10;95.70
11474;DHT22;5793;52.238;13.438;2024-03-17T15:31:06;8.90;95.40
11474;DHT22;5793;52.238;13.438;2024-03-17T15:33:33;8.80;95.80
11474;DHT22;5793;52.238;13.438;2024-03-17T15:36:03;8.80;97.90
11474;DHT22;5793;52.238;13.438;2024-03-17T15:38:30;8.80;98.90
11474;DHT22;5793;52.238;13.438;2024-03-17T15:40:59;8.80;99.30
11474;DHT22;5793;52.238;13.438;2024-03-17T15:43:26;8.70;98.40
11474;DHT22;5793;52.238;13.438;2024-03-17T15:45:53;8.80;99.90
11474;DHT22;5793;52.238;13.438;2024-03-17T15:48:21;8.80;99.50
11474;DHT22;5793;52.238;13.438;2024-03-17T15:50:54;8.80;99.90